TimeCDT,TemperatureF,Dew PointF,Humidity,Sea Level PressureIn,VisibilityMPH,Wind Direction,Wind SpeedMPH,Gust SpeedMPH,PrecipitationIn,Events,Conditions,WindDirDegrees,DateUTC
12:53 AM,75.0,72.0,90,30.20,5.0,Calm,Calm,-,N/A,,Clear,0,2013-08-26 05:53:00
1:53 AM,73.9,71.1,91,30.19,4.0,Calm,Calm,-,N/A,,Clear,0,2013-08-26 06:53:00
2:53 AM,73.0,70.0,90,30.20,5.0,Calm,Calm,-,N/A,,Clear,0,2013-08-26 07:53:00
3:53 AM,73.0,70.0,90,30.20,4.0,Calm,Calm,-,N/A,,Clear,0,2013-08-26 08:53:00
4:38 AM,71.6,69.8,94,30.21,2.0,Calm,Calm,-,N/A,,Clear,0,2013-08-26 09:38:00
4:53 AM,73.0,70.0,90,30.20,0.8,Calm,Calm,-,N/A,,Clear,0,2013-08-26 09:53:00
5:03 AM,71.6,69.8,94,30.21,1.5,Calm,Calm,-,N/A,,Partly Cloudy,0,2013-08-26 10:03:00
5:05 AM,71.6,69.8,94,30.21,0.8,Calm,Calm,-,N/A,,Mist,0,2013-08-26 10:05:00
5:09 AM,71.6,69.8,94,30.22,0.2,Calm,Calm,-,N/A,Fog,Fog,0,2013-08-26 10:09:00
5:17 AM,71.6,68.0,88,30.22,0.8,Calm,Calm,-,N/A,,Mist,0,2013-08-26 10:17:00
5:19 AM,71.6,69.8,94,30.22,1.2,Calm,Calm,-,N/A,,Scattered Clouds,0,2013-08-26 10:19:00
5:35 AM,71.6,69.8,94,30.22,2.0,Calm,Calm,-,N/A,,Partly Cloudy,0,2013-08-26 10:35:00
5:44 AM,71.6,69.8,94,30.22,1.5,Calm,Calm,-,N/A,,Clear,0,2013-08-26 10:44:00
5:53 AM,72.0,69.1,91,30.21,1.5,Calm,Calm,-,N/A,,Clear,0,2013-08-26 10:53:00
6:18 AM,71.6,69.8,94,30.23,2.0,Calm,Calm,-,N/A,,Partly Cloudy,0,2013-08-26 11:18:00
6:27 AM,71.6,68.0,88,30.23,0.8,Calm,Calm,-,N/A,,Mist,0,2013-08-26 11:27:00
6:30 AM,71.6,68.0,88,30.23,0.2,Calm,Calm,-,N/A,Fog,Fog,0,2013-08-26 11:30:00
6:39 AM,71.6,69.8,94,30.23,0.8,Calm,Calm,-,N/A,,Mist,0,2013-08-26 11:39:00
6:53 AM,71.1,69.1,93,30.23,1.0,Calm,Calm,-,N/A,,Mist,0,2013-08-26 11:53:00
7:02 AM,71.6,69.8,94,30.24,2.0,Calm,Calm,-,N/A,,Clear,0,2013-08-26 12:02:00
7:10 AM,73.4,69.8,88,30.24,1.5,Calm,Calm,-,N/A,,Clear,0,2013-08-26 12:10:00
7:23 AM,73.4,71.6,94,30.24,2.0,Calm,Calm,-,N/A,,Clear,0,2013-08-26 12:23:00
7:43 AM,75.2,71.6,89,30.25,3.0,Calm,Calm,-,N/A,,Clear,0,2013-08-26 12:43:00
7:53 AM,75.9,72.0,87,30.24,4.0,Calm,Calm,-,N/A,,Clear,0,2013-08-26 12:53:00
8:53 AM,80.1,73.0,79,30.24,10.0,North,-9999.0,-,N/A,,Clear,0,2013-08-26 13:53:00
9:53 AM,84.9,72.0,65,30.24,10.0,SW,8.1,-,N/A,,Clear,220,2013-08-26 14:53:00
10:53 AM,84.9,72.0,65,30.25,10.0,North,-9999.0,-,N/A,,Clear,0,2013-08-26 15:53:00
11:53 AM,88.0,71.1,57,30.23,10.0,SSW,6.9,-,N/A,,Scattered Clouds,200,2013-08-26 16:53:00
12:53 PM,87.1,71.1,59,30.22,10.0,WSW,5.8,-,N/A,,Mostly Cloudy,240,2013-08-26 17:53:00
1:53 PM,89.1,71.1,55,30.19,10.0,Variable,4.6,-,N/A,,Partly Cloudy,0,2013-08-26 18:53:00
2:53 PM,90.0,72.0,55,30.17,10.0,SSW,6.9,-,N/A,,Mostly Cloudy,200,2013-08-26 19:53:00
3:53 PM,91.0,71.1,52,30.15,10.0,SSW,8.1,-,N/A,,Scattered Clouds,210,2013-08-26 20:53:00
4:53 PM,88.0,70.0,55,30.14,10.0,SW,6.9,-,N/A,,Clear,220,2013-08-26 21:53:00
5:53 PM,90.0,70.0,52,30.12,10.0,South,5.8,-,N/A,,Partly Cloudy,170,2013-08-26 22:53:00
6:53 PM,88.0,69.1,53,30.12,10.0,SSW,4.6,-,N/A,,Clear,210,2013-08-26 23:53:00
7:53 PM,82.0,71.1,69,30.12,10.0,SSW,3.5,-,N/A,,Clear,200,2013-08-27 00:53:00
8:53 PM,77.0,71.1,82,30.12,10.0,Calm,Calm,-,N/A,,Clear,0,2013-08-27 01:53:00
9:53 PM,75.0,71.1,87,30.12,10.0,Calm,Calm,-,N/A,,Clear,0,2013-08-27 02:53:00
10:53 PM,73.9,70.0,87,30.12,10.0,Calm,Calm,-,N/A,,Clear,0,2013-08-27 03:53:00
11:53 PM,73.9,70.0,87,30.12,10.0,Calm,Calm,-,N/A,,Clear,0,2013-08-27 04:53:00